sensor_id;sensor_type;location;lat;lon;timestamp;temperature;humidity
7461;DHT22;6757;52.258;12.840;2022-08-19T00:00:37;20.80;99.90
7461;DHT22;6757;52.258;12.840;2022-08-19T00:03:05;20.80;99.90
7461;DHT22;6757;52.258;12.840;2022-08-19T00:05:33;20.80;99.90
7461;DHT22;6757;52.258;12.840;2022-08-19T00:08:00;20.70;99.90
7461;DHT22;6757;52.258;12.840;2022-08-19T00:10:27;20.70;99.90
7461;DHT22;6757;52.258;12.840;2022-08-19T00:12:54;22.40;99.90
7461;DHT22;6757;52.258;12.840;2022-08-19T00:15:23;20.70;99.90
7461;DHT22;6757;52.258;12.840;2022-08-19T00:17:50;20.70;99.90
7461;DHT22;6757;52.258;12.840;2022-08-19T00:20:19;20.70;99.90
7461;DHT22;6757;52.258;12.840;2022-08-19T00:22:47;20.60;99.90
7461;DHT22;6757;52.258;12.840;2022-08-19T00:25:15;20.60;99.90
7461;DHT22;6757;52.258;12.840;2022-08-19T00:27:43;20.50;99.90
7461;DHT22;6757;52.258;12.840;2022-08-19T00:30:11;20.50;99.90
7461;DHT22;6757;52.258;12.840;2022-08-19T00:32:40;20.50;99.90
7461;DHT22;6757;52.258;12.840;2022-08-19T00:35:08;20.40;99.90
7461;DHT22;6757;52.258;12.840;2022-08-19T00:37:36;20.40;99.90
7461;DHT22;6757;52.258;12.840;2022-08-19T00:40:05;20.50;99.90
7461;DHT22;6757;52.258;12.840;2022-08-19T00:42:33;20.40;99.90
7461;DHT22;6757;52.258;12.840;2022-08-19T00:45:00;20.40;99.90
7461;DHT22;6757;52.258;12.840;2022-08-19T00:47:27;20.40;99.90
7461;DHT22;6757;52.258;12.840;2022-08-19T00:49:56;20.40;99.90
7461;DHT22;6757;52.258;12.840;2022-08-19T00:52:27;20.40;99.90
7461;DHT22;6757;52.258;12.840;2022-08-19T00:54:56;20.30;99.90
7461;DHT22;6757;52.258;12.840;2022-08-19T00:57:29;20.30;99.90
7461;DHT22;6757;52.258;12.840;2022-08-19T00:59:59;20.30;99.90
7461;DHT22;6757;52.258;12.840;2022-08-19T01:02:28;20.30;99.90
7461;DHT22;6757;52.258;12.840;2022-08-19T01:04:57;20.30;99.90
7461;DHT22;6757;52.258;12.840;2022-08-19T01:07:24;20.20;99.90
7461;DHT22;6757;52.258;12.840;2022-08-19T01:09:51;20.50;99.90
7461;DHT22;6757;52.258;12.840;2022-08-19T01:12:18;20.30;99.90
7461;DHT22;6757;52.258;12.840;2022-08-19T01:14:47;20.20;99.90
7461;DHT22;6757;52.258;12.840;2022-08-19T01:17:22;20.20;99.90
7461;DHT22;6757;52.258;12.840;2022-08-19T01:19:50;20.20;99.90
7461;DHT22;6757;52.258;12.840;2022-08-19T01:22:26;20.20;99.90
7461;DHT22;6757;52.258;12.840;2022-08-19T01:24:54;20.20;99.90
7461;DHT22;6757;52.258;12.840;2022-08-19T01:27:21;20.20;99.90
7461;DHT22;6757;52.258;12.840;2022-08-19T01:29:48;20.20;99.90
7461;DHT22;6757;52.258;12.840;2022-08-19T01:32:16;20.20;99.90
7461;DHT22;6757;52.258;12.840;2022-08-19T01:34:44;20.20;99.90
7461;DHT22;6757;52.258;12.840;2022-08-19T01:37:13;20.20;99.90
7461;DHT22;6757;52.258;12.840;2022-08-19T01:39:43;20.20;99.90
7461;DHT22;6757;52.258;12.840;2022-08-19T01:42:09;20.90;99.90
7461;DHT22;6757;52.258;12.840;2022-08-19T01:44:38;20.10;99.90
7461;DHT22;6757;52.258;12.840;2022-08-19T01:47:06;20.10;99.90
7461;DHT22;6757;52.258;12.840;2022-08-19T01:49:35;20.00;99.90
7461;DHT22;6757;52.258;12.840;2022-08-19T01:52:03;20.00;99.90
7461;DHT22;6757;52.258;12.840;2022-08-19T01:54:31;20.00;99.90
7461;DHT22;6757;52.258;12.840;2022-08-19T01:57:02;20.40;99.90
7461;DHT22;6757;52.258;12.840;2022-08-19T01:59:32;20.10;99.90
7461;DHT22;6757;52.258;12.840;2022-08-19T02:02:01;20.30;99.90
7461;DHT22;6757;52.258;12.840;2022-08-19T02:04:29;20.00;99.90
7461;DHT22;6757;52.258;12.840;2022-08-19T02:06:57;20.00;99.90
7461;DHT22;6757;52.258;12.840;2022-08-19T02:09:24;20.00;99.90
7461;DHT22;6757;52.258;12.840;2022-08-19T02:11:51;20.00;99.90
7461;DHT22;6757;52.258;12.840;2022-08-19T02:14:20;20.00;99.90
7461;DHT22;6757;52.258;12.840;2022-08-19T02:16:47;20.00;99.90
7461;DHT22;6757;52.258;12.840;2022-08-19T02:19:13;19.90;99.90
7461;DHT22;6757;52.258;12.840;2022-08-19T02:21:40;19.90;99.90
7461;DHT22;6757;52.258;12.840;2022-08-19T02:24:09;19.90;99.90
7461;DHT22;6757;52.258;12.840;2022-08-19T02:26:37;19.90;99.90
7461;DHT22;6757;52.258;12.840;2022-08-19T02:29:04;19.90;99.90
7461;DHT22;6757;52.258;12.840;2022-08-19T02:31:33;20.00;99.90
7461;DHT22;6757;52.258;12.840;2022-08-19T02:34:00;19.80;99.90
7461;DHT22;6757;52.258;12.840;2022-08-19T02:36:27;20.80;99.90
7461;DHT22;6757;52.258;12.840;2022-08-19T02:38:55;19.90;99.90
7461;DHT22;6757;52.258;12.840;2022-08-19T02:41:24;19.90;99.90
7461;DHT22;6757;52.258;12.840;2022-08-19T02:43:52;19.90;99.90
7461;DHT22;6757;52.258;12.840;2022-08-19T02:46:21;19.90;99.90
7461;DHT22;6757;52.258;12.840;2022-08-19T02:48:52;19.90;99.90
7461;DHT22;6757;52.258;12.840;2022-08-19T02:51:24;19.90;99.90
7461;DHT22;6757;52.258;12.840;2022-08-19T02:53:52;19.80;99.90
7461;DHT22;6757;52.258;12.840;2022-08-19T02:56:22;19.80;99.90
7461;DHT22;6757;52.258;12.840;2022-08-19T02:58:49;19.90;99.90
7461;DHT22;6757;52.258;12.840;2022-08-19T03:01:21;20.00;99.90
7461;DHT22;6757;52.258;12.840;2022-08-19T03:03:50;20.00;99.90
7461;DHT22;6757;52.258;12.840;2022-08-19T03:06:18;19.80;99.90
7461;DHT22;6757;52.258;12.840;2022-08-19T03:08:47;19.80;99.90
7461;DHT22;6757;52.258;12.840;2022-08-19T03:11:17;19.70;99.90
7461;DHT22;6757;52.258;12.840;2022-08-19T03:13:45;19.70;99.90
7461;DHT22;6757;52.258;12.840;2022-08-19T03:16:14;19.70;99.90
7461;DHT22;6757;52.258;12.840;2022-08-19T03:18:42;19.70;99.90
7461;DHT22;6757;52.258;12.840;2022-08-19T03:21:15;19.70;99.90
7461;DHT22;6757;52.258;12.840;2022-08-19T03:23:42;19.70;99.90
7461;DHT22;6757;52.258;12.840;2022-08-19T03:26:09;19.60;99.90
7461;DHT22;6757;52.258;12.840;2022-08-19T03:28:36;19.60;99.90
7461;DHT22;6757;52.258;12.840;2022-08-19T03:31:05;19.60;99.90
7461;DHT22;6757;52.258;12.840;2022-08-19T03:33:35;19.60;99.90
7461;DHT22;6757;52.258;12.840;2022-08-19T03:36:06;19.60;99.90
7461;DHT22;6757;52.258;12.840;2022-08-19T03:38:37;19.60;99.90
7461;DHT22;6757;52.258;12.840;2022-08-19T03:41:06;19.60;99.90
7461;DHT22;6757;52.258;12.840;2022-08-19T03:43:35;19.60;99.90
7461;DHT22;6757;52.258;12.840;2022-08-19T03:46:04;19.60;99.90
7461;DHT22;6757;52.258;12.840;2022-08-19T03:48:33;19.60;99.90
7461;DHT22;6757;52.258;12.840;2022-08-19T03:51:02;19.60;99.90
7461;DHT22;6757;52.258;12.840;2022-08-19T03:53:29;19.60;99.90
7461;DHT22;6757;52.258;12.840;2022-08-19T03:55:59;19.60;99.90
7461;DHT22;6757;52.258;12.840;2022-08-19T03:58:27;19.60;99.90
7461;DHT22;6757;52.258;12.840;2022-08-19T04:00:55;19.70;99.90
7461;DHT22;6757;52.258;12.840;2022-08-19T04:03:22;19.60;99.90
7461;DHT22;6757;52.258;12.840;2022-08-19T04:05:49;19.60;99.90
7461;DHT22;6757;52.258;12.840;2022-08-19T04:08:16;19.60;99.90
7461;DHT22;6757;52.258;12.840;2022-08-19T04:10:45;19.70;99.90
7461;DHT22;6757;52.258;12.840;2022-08-19T04:13:15;19.70;99.90
7461;DHT22;6757;52.258;12.840;2022-08-19T04:15:45;19.60;99.90
7461;DHT22;6757;52.258;12.840;2022-08-19T04:18:13;19.60;99.90
7461;DHT22;6757;52.258;12.840;2022-08-19T04:20:41;19.70;99.90
7461;DHT22;6757;52.258;12.840;2022-08-19T04:23:09;19.70;99.90
7461;DHT22;6757;52.258;12.840;2022-08-19T04:25:38;19.70;99.90
7461;DHT22;6757;52.258;12.840;2022-08-19T04:28:06;19.70;99.90
7461;DHT22;6757;52.258;12.840;2022-08-19T04:30:42;19.70;99.90
7461;DHT22;6757;52.258;12.840;2022-08-19T04:33:12;19.70;99.90
7461;DHT22;6757;52.258;12.840;2022-08-19T04:35:42;19.80;99.90
7461;DHT22;6757;52.258;12.840;2022-08-19T04:38:14;19.80;99.90
7461;DHT22;6757;52.258;12.840;2022-08-19T04:40:46;19.80;99.90
7461;DHT22;6757;52.258;12.840;2022-08-19T04:43:32;19.80;99.90
7461;DHT22;6757;52.258;12.840;2022-08-19T04:46:06;19.80;99.90
7461;DHT22;6757;52.258;12.840;2022-08-19T04:48:34;19.80;99.90
7461;DHT22;6757;52.258;12.840;2022-08-19T04:51:05;19.90;99.90
7461;DHT22;6757;52.258;12.840;2022-08-19T04:53:35;19.80;99.90
7461;DHT22;6757;52.258;12.840;2022-08-19T04:56:05;19.80;99.90
7461;DHT22;6757;52.258;12.840;2022-08-19T04:58:34;19.80;99.90
7461;DHT22;6757;52.258;12.840;2022-08-19T05:01:02;19.80;99.90
7461;DHT22;6757;52.258;12.840;2022-08-19T05:03:31;19.80;99.90
7461;DHT22;6757;52.258;12.840;2022-08-19T05:06:04;19.80;99.90
7461;DHT22;6757;52.258;12.840;2022-08-19T05:08:33;19.80;99.90
7461;DHT22;6757;52.258;12.840;2022-08-19T05:11:01;21.20;99.90
7461;DHT22;6757;52.258;12.840;2022-08-19T05:13:28;19.90;99.90
7461;DHT22;6757;52.258;12.840;2022-08-19T05:15:56;19.90;99.90
7461;DHT22;6757;52.258;12.840;2022-08-19T05:18:24;19.90;99.90
7461;DHT22;6757;52.258;12.840;2022-08-19T05:21:14;19.90;99.90
7461;DHT22;6757;52.258;12.840;2022-08-19T05:24:00;20.00;99.90
7461;DHT22;6757;52.258;12.840;2022-08-19T05:26:28;20.00;99.90
7461;DHT22;6757;52.258;12.840;2022-08-19T05:28:55;20.00;99.90
7461;DHT22;6757;52.258;12.840;2022-08-19T05:31:22;20.00;99.90
7461;DHT22;6757;52.258;12.840;2022-08-19T05:33:49;20.00;99.90
7461;DHT22;6757;52.258;12.840;2022-08-19T05:36:17;20.00;99.90
7461;DHT22;6757;52.258;12.840;2022-08-19T05:38:45;20.00;99.90
7461;DHT22;6757;52.258;12.840;2022-08-19T05:41:13;20.00;99.90
7461;DHT22;6757;52.258;12.840;2022-08-19T05:43:41;20.00;99.90
7461;DHT22;6757;52.258;12.840;2022-08-19T05:46:16;20.00;99.90
7461;DHT22;6757;52.258;12.840;2022-08-19T05:48:45;20.00;99.90
7461;DHT22;6757;52.258;12.840;2022-08-19T05:51:12;20.00;99.90
7461;DHT22;6757;52.258;12.840;2022-08-19T05:53:40;20.10;99.90
7461;DHT22;6757;52.258;12.840;2022-08-19T05:56:10;20.10;99.90
7461;DHT22;6757;52.258;12.840;2022-08-19T05:58:40;20.10;99.90
7461;DHT22;6757;52.258;12.840;2022-08-19T06:01:10;20.10;99.90
7461;DHT22;6757;52.258;12.840;2022-08-19T06:03:39;20.20;99.90
7461;DHT22;6757;52.258;12.840;2022-08-19T06:06:07;20.20;99.90
7461;DHT22;6757;52.258;12.840;2022-08-19T06:08:35;20.30;99.90
7461;DHT22;6757;52.258;12.840;2022-08-19T06:11:17;20.30;99.90
7461;DHT22;6757;52.258;12.840;2022-08-19T06:13:47;20.30;99.90
7461;DHT22;6757;52.258;12.840;2022-08-19T06:16:18;20.40;99.90
7461;DHT22;6757;52.258;12.840;2022-08-19T06:18:49;20.40;99.90
7461;DHT22;6757;52.258;12.840;2022-08-19T06:21:18;20.40;99.90
7461;DHT22;6757;52.258;12.840;2022-08-19T06:23:46;20.50;99.90
7461;DHT22;6757;52.258;12.840;2022-08-19T06:26:15;20.50;99.90
7461;DHT22;6757;52.258;12.840;2022-08-19T06:28:44;20.60;99.90
7461;DHT22;6757;52.258;12.840;2022-08-19T06:31:12;20.60;99.90
7461;DHT22;6757;52.258;12.840;2022-08-19T06:33:40;20.60;99.90
7461;DHT22;6757;52.258;12.840;2022-08-19T06:36:08;20.70;99.90
7461;DHT22;6757;52.258;12.840;2022-08-19T06:38:43;20.70;99.90
7461;DHT22;6757;52.258;12.840;2022-08-19T06:41:10;20.80;99.90
7461;DHT22;6757;52.258;12.840;2022-08-19T06:43:38;20.90;99.90
7461;DHT22;6757;52.258;12.840;2022-08-19T06:46:10;20.90;99.90
7461;DHT22;6757;52.258;12.840;2022-08-19T06:48:38;21.00;99.90
7461;DHT22;6757;52.258;12.840;2022-08-19T06:51:06;21.10;99.90
7461;DHT22;6757;52.258;12.840;2022-08-19T06:53:33;21.20;99.90
7461;DHT22;6757;52.258;12.840;2022-08-19T06:56:00;21.20;99.90
7461;DHT22;6757;52.258;12.840;2022-08-19T06:58:28;21.20;99.90
7461;DHT22;6757;52.258;12.840;2022-08-19T07:00:59;21.20;99.90
7461;DHT22;6757;52.258;12.840;2022-08-19T07:03:29;21.20;99.90
7461;DHT22;6757;52.258;12.840;2022-08-19T07:05:58;21.20;99.90
7461;DHT22;6757;52.258;12.840;2022-08-19T07:08:29;21.20;99.90
7461;DHT22;6757;52.258;12.840;2022-08-19T07:10:57;21.20;99.90
7461;DHT22;6757;52.258;12.840;2022-08-19T07:13:24;22.50;99.90
7461;DHT22;6757;52.258;12.840;2022-08-19T07:15:51;21.20;99.90
7461;DHT22;6757;52.258;12.840;2022-08-19T07:18:20;21.20;99.90
7461;DHT22;6757;52.258;12.840;2022-08-19T07:20:48;21.10;99.90
7461;DHT22;6757;52.258;12.840;2022-08-19T07:23:15;22.10;99.90
7461;DHT22;6757;52.258;12.840;2022-08-19T07:25:42;21.00;99.90
7461;DHT22;6757;52.258;12.840;2022-08-19T07:28:10;21.00;99.90
7461;DHT22;6757;52.258;12.840;2022-08-19T07:30:37;21.00;99.90
7461;DHT22;6757;52.258;12.840;2022-08-19T07:33:06;21.00;99.90
7461;DHT22;6757;52.258;12.840;2022-08-19T07:35:34;21.00;99.90
7461;DHT22;6757;52.258;12.840;2022-08-19T07:38:01;21.00;99.90
7461;DHT22;6757;52.258;12.840;2022-08-19T07:40:29;20.90;99.90
7461;DHT22;6757;52.258;12.840;2022-08-19T07:42:56;20.90;99.90
7461;DHT22;6757;52.258;12.840;2022-08-19T07:45:23;20.90;99.90
7461;DHT22;6757;52.258;12.840;2022-08-19T07:47:50;20.90;99.90
7461;DHT22;6757;52.258;12.840;2022-08-19T07:50:19;20.90;99.90
7461;DHT22;6757;52.258;12.840;2022-08-19T07:52:49;20.90;99.90
7461;DHT22;6757;52.258;12.840;2022-08-19T07:55:19;20.90;99.90
7461;DHT22;6757;52.258;12.840;2022-08-19T07:57:49;20.90;99.90
7461;DHT22;6757;52.258;12.840;2022-08-19T08:00:17;20.90;99.90
7461;DHT22;6757;52.258;12.840;2022-08-19T08:02:44;20.90;99.90
7461;DHT22;6757;52.258;12.840;2022-08-19T08:05:11;20.90;99.90
7461;DHT22;6757;52.258;12.840;2022-08-19T08:07:57;20.90;99.90
7461;DHT22;6757;52.258;12.840;2022-08-19T08:10:41;20.90;99.90
7461;DHT22;6757;52.258;12.840;2022-08-19T08:13:09;20.90;99.90
7461;DHT22;6757;52.258;12.840;2022-08-19T08:15:37;21.00;99.90
7461;DHT22;6757;52.258;12.840;2022-08-19T08:18:04;21.00;99.90
7461;DHT22;6757;52.258;12.840;2022-08-19T08:20:32;21.00;99.90
7461;DHT22;6757;52.258;12.840;2022-08-19T08:23:00;21.00;99.90
7461;DHT22;6757;52.258;12.840;2022-08-19T08:25:45;21.00;99.90
7461;DHT22;6757;52.258;12.840;2022-08-19T08:28:12;22.30;99.90
7461;DHT22;6757;52.258;12.840;2022-08-19T08:30:39;21.10;99.90
7461;DHT22;6757;52.258;12.840;2022-08-19T08:33:07;21.10;99.90
7461;DHT22;6757;52.258;12.840;2022-08-19T08:35:35;21.10;99.90
7461;DHT22;6757;52.258;12.840;2022-08-19T08:38:03;21.10;99.90
7461;DHT22;6757;52.258;12.840;2022-08-19T08:40:39;21.20;99.90
7461;DHT22;6757;52.258;12.840;2022-08-19T08:43:23;21.20;99.90
7461;DHT22;6757;52.258;12.840;2022-08-19T08:45:59;21.20;99.90
7461;DHT22;6757;52.258;12.840;2022-08-19T08:48:38;21.20;99.90
7461;DHT22;6757;52.258;12.840;2022-08-19T08:51:16;22.30;99.90
7461;DHT22;6757;52.258;12.840;2022-08-19T08:53:50;21.20;99.90
7461;DHT22;6757;52.258;12.840;2022-08-19T08:56:18;21.20;99.90
7461;DHT22;6757;52.258;12.840;2022-08-19T08:58:53;21.20;99.90
7461;DHT22;6757;52.258;12.840;2022-08-19T09:01:23;21.10;99.90
7461;DHT22;6757;52.258;12.840;2022-08-19T09:03:50;21.10;99.90
7461;DHT22;6757;52.258;12.840;2022-08-19T09:06:24;21.10;99.90
7461;DHT22;6757;52.258;12.840;2022-08-19T09:09:01;21.10;99.90
7461;DHT22;6757;52.258;12.840;2022-08-19T09:11:46;21.10;99.90
7461;DHT22;6757;52.258;12.840;2022-08-19T09:14:28;21.10;99.90
7461;DHT22;6757;52.258;12.840;2022-08-19T09:17:00;21.00;99.90
7461;DHT22;6757;52.258;12.840;2022-08-19T09:19:29;21.00;99.90
7461;DHT22;6757;52.258;12.840;2022-08-19T09:21:56;21.00;99.90
7461;DHT22;6757;52.258;12.840;2022-08-19T09:24:27;21.00;99.90
7461;DHT22;6757;52.258;12.840;2022-08-19T09:26:54;20.90;99.90
7461;DHT22;6757;52.258;12.840;2022-08-19T09:29:21;20.90;99.90
7461;DHT22;6757;52.258;12.840;2022-08-19T09:31:48;20.90;99.90
7461;DHT22;6757;52.258;12.840;2022-08-19T09:34:15;21.80;99.90
7461;DHT22;6757;52.258;12.840;2022-08-19T09:36:45;20.90;99.90
7461;DHT22;6757;52.258;12.840;2022-08-19T09:39:13;21.00;99.90
7461;DHT22;6757;52.258;12.840;2022-08-19T09:41:41;21.00;99.90
7461;DHT22;6757;52.258;12.840;2022-08-19T09:44:08;21.00;99.90
7461;DHT22;6757;52.258;12.840;2022-08-19T09:46:36;21.00;99.90
7461;DHT22;6757;52.258;12.840;2022-08-19T09:49:03;21.00;99.90
7461;DHT22;6757;52.258;12.840;2022-08-19T09:51:32;21.00;99.90
7461;DHT22;6757;52.258;12.840;2022-08-19T09:54:02;21.00;99.90
7461;DHT22;6757;52.258;12.840;2022-08-19T09:56:30;21.00;99.90
7461;DHT22;6757;52.258;12.840;2022-08-19T09:59:00;20.90;99.90
7461;DHT22;6757;52.258;12.840;2022-08-19T10:01:28;20.90;99.90
7461;DHT22;6757;52.258;12.840;2022-08-19T10:03:58;20.90;99.90
7461;DHT22;6757;52.258;12.840;2022-08-19T10:06:27;20.90;99.90
7461;DHT22;6757;52.258;12.840;2022-08-19T10:08:58;20.80;99.90
7461;DHT22;6757;52.258;12.840;2022-08-19T10:11:25;20.80;99.90
7461;DHT22;6757;52.258;12.840;2022-08-19T10:13:53;20.80;99.90
7461;DHT22;6757;52.258;12.840;2022-08-19T10:16:22;20.80;99.90
7461;DHT22;6757;52.258;12.840;2022-08-19T10:18:51;22.40;99.90
7461;DHT22;6757;52.258;12.840;2022-08-19T10:21:21;20.80;99.90
7461;DHT22;6757;52.258;12.840;2022-08-19T10:23:50;20.80;99.90
7461;DHT22;6757;52.258;12.840;2022-08-19T10:26:20;20.70;99.90
7461;DHT22;6757;52.258;12.840;2022-08-19T10:28:48;20.80;99.90
7461;DHT22;6757;52.258;12.840;2022-08-19T10:31:17;20.70;99.90
7461;DHT22;6757;52.258;12.840;2022-08-19T10:33:47;20.70;99.90
7461;DHT22;6757;52.258;12.840;2022-08-19T10:36:17;20.70;99.90
7461;DHT22;6757;52.258;12.840;2022-08-19T10:38:46;20.70;99.90
7461;DHT22;6757;52.258;12.840;2022-08-19T10:41:16;20.60;99.90
7461;DHT22;6757;52.258;12.840;2022-08-19T10:43:44;20.60;99.90
7461;DHT22;6757;52.258;12.840;2022-08-19T10:46:14;20.50;99.90
7461;DHT22;6757;52.258;12.840;2022-08-19T10:48:42;20.50;99.90
7461;DHT22;6757;52.258;12.840;2022-08-19T10:51:12;20.50;99.90
7461;DHT22;6757;52.258;12.840;2022-08-19T10:53:57;20.40;99.90
7461;DHT22;6757;52.258;12.840;2022-08-19T10:56:24;20.40;99.90
7461;DHT22;6757;52.258;12.840;2022-08-19T10:59:09;20.40;99.90
7461;DHT22;6757;52.258;12.840;2022-08-19T11:01:39;20.40;99.90
7461;DHT22;6757;52.258;12.840;2022-08-19T11:04:07;20.30;99.90
7461;DHT22;6757;52.258;12.840;2022-08-19T11:06:38;20.30;99.90
7461;DHT22;6757;52.258;12.840;2022-08-19T11:09:06;20.30;99.90
7461;DHT22;6757;52.258;12.840;2022-08-19T11:11:34;20.30;99.90
7461;DHT22;6757;52.258;12.840;2022-08-19T11:14:06;20.40;99.90
7461;DHT22;6757;52.258;12.840;2022-08-19T11:16:33;20.40;99.90
7461;DHT22;6757;52.258;12.840;2022-08-19T11:19:00;20.40;99.90
7461;DHT22;6757;52.258;12.840;2022-08-19T11:21:29;20.40;99.90
7461;DHT22;6757;52.258;12.840;2022-08-19T11:24:00;20.40;99.90
7461;DHT22;6757;52.258;12.840;2022-08-19T11:26:30;20.40;99.90
7461;DHT22;6757;52.258;12.840;2022-08-19T11:28:58;20.50;99.90
7461;DHT22;6757;52.258;12.840;2022-08-19T11:31:32;20.50;99.90
7461;DHT22;6757;52.258;12.840;2022-08-19T11:34:04;20.60;99.90
7461;DHT22;6757;52.258;12.840;2022-08-19T11:36:31;20.70;99.90
7461;DHT22;6757;52.258;12.840;2022-08-19T11:39:03;20.70;99.90
7461;DHT22;6757;52.258;12.840;2022-08-19T11:41:31;20.70;99.90
7461;DHT22;6757;52.258;12.840;2022-08-19T11:43:58;20.80;99.90
7461;DHT22;6757;52.258;12.840;2022-08-19T11:46:26;20.80;99.90
7461;DHT22;6757;52.258;12.840;2022-08-19T11:48:55;20.80;99.90
7461;DHT22;6757;52.258;12.840;2022-08-19T11:51:23;20.80;99.90
7461;DHT22;6757;52.258;12.840;2022-08-19T11:53:51;20.80;99.90
7461;DHT22;6757;52.258;12.840;2022-08-19T11:56:21;20.80;99.90
7461;DHT22;6757;52.258;12.840;2022-08-19T11:58:48;20.80;99.90
7461;DHT22;6757;52.258;12.840;2022-08-19T12:01:17;20.80;99.90
7461;DHT22;6757;52.258;12.840;2022-08-19T12:03:46;20.80;99.90
7461;DHT22;6757;52.258;12.840;2022-08-19T12:06:18;20.70;99.90
7461;DHT22;6757;52.258;12.840;2022-08-19T12:08:49;20.70;99.90
7461;DHT22;6757;52.258;12.840;2022-08-19T12:11:16;20.60;99.90
7461;DHT22;6757;52.258;12.840;2022-08-19T12:13:44;20.60;99.90
7461;DHT22;6757;52.258;12.840;2022-08-19T12:16:15;20.60;99.90
7461;DHT22;6757;52.258;12.840;2022-08-19T12:18:45;20.60;99.90
7461;DHT22;6757;52.258;12.840;2022-08-19T12:21:13;20.60;99.90
7461;DHT22;6757;52.258;12.840;2022-08-19T12:23:41;20.60;99.90
7461;DHT22;6757;52.258;12.840;2022-08-19T12:26:11;20.60;99.90
7461;DHT22;6757;52.258;12.840;2022-08-19T12:28:38;20.60;99.90
7461;DHT22;6757;52.258;12.840;2022-08-19T12:31:08;20.60;99.90
7461;DHT22;6757;52.258;12.840;2022-08-19T12:33:37;20.60;99.90
7461;DHT22;6757;52.258;12.840;2022-08-19T12:36:06;20.60;99.90
7461;DHT22;6757;52.258;12.840;2022-08-19T12:38:35;20.60;99.90
7461;DHT22;6757;52.258;12.840;2022-08-19T12:41:03;20.70;99.90
7461;DHT22;6757;52.258;12.840;2022-08-19T12:43:32;20.70;99.90
7461;DHT22;6757;52.258;12.840;2022-08-19T12:46:00;20.70;99.90
7461;DHT22;6757;52.258;12.840;2022-08-19T12:48:28;20.70;99.90
7461;DHT22;6757;52.258;12.840;2022-08-19T12:50:55;20.80;99.90
7461;DHT22;6757;52.258;12.840;2022-08-19T12:53:23;20.80;99.90
7461;DHT22;6757;52.258;12.840;2022-08-19T12:55:55;20.80;99.90
7461;DHT22;6757;52.258;12.840;2022-08-19T12:58:22;20.80;99.90
7461;DHT22;6757;52.258;12.840;2022-08-19T13:00:49;20.80;99.90
7461;DHT22;6757;52.258;12.840;2022-08-19T13:03:16;20.80;99.90
7461;DHT22;6757;52.258;12.840;2022-08-19T13:05:45;20.80;99.90
7461;DHT22;6757;52.258;12.840;2022-08-19T13:08:12;20.80;99.90
7461;DHT22;6757;52.258;12.840;2022-08-19T13:10:38;20.80;99.90
7461;DHT22;6757;52.258;12.840;2022-08-19T13:13:07;21.80;99.90
7461;DHT22;6757;52.258;12.840;2022-08-19T13:15:37;21.10;99.90
7461;DHT22;6757;52.258;12.840;2022-08-19T13:18:07;20.80;99.90
7461;DHT22;6757;52.258;12.840;2022-08-19T13:20:36;20.80;99.90
7461;DHT22;6757;52.258;12.840;2022-08-19T13:23:05;20.80;99.90
7461;DHT22;6757;52.258;12.840;2022-08-19T13:25:32;21.70;99.90
7461;DHT22;6757;52.258;12.840;2022-08-19T13:27:59;20.90;99.90
7461;DHT22;6757;52.258;12.840;2022-08-19T13:30:26;20.90;99.90
7461;DHT22;6757;52.258;12.840;2022-08-19T13:33:11;20.90;99.90
7461;DHT22;6757;52.258;12.840;2022-08-19T13:35:40;20.90;99.90
7461;DHT22;6757;52.258;12.840;2022-08-19T13:38:13;20.90;99.90
7461;DHT22;6757;52.258;12.840;2022-08-19T13:40:42;21.00;99.90
7461;DHT22;6757;52.258;12.840;2022-08-19T13:43:09;21.00;99.90
7461;DHT22;6757;52.258;12.840;2022-08-19T13:45:36;21.00;99.90
7461;DHT22;6757;52.258;12.840;2022-08-19T13:48:05;21.00;99.90
7461;DHT22;6757;52.258;12.840;2022-08-19T13:50:35;21.00;99.90
7461;DHT22;6757;52.258;12.840;2022-08-19T13:53:06;21.00;99.90
7461;DHT22;6757;52.258;12.840;2022-08-19T13:55:35;21.00;99.90
7461;DHT22;6757;52.258;12.840;2022-08-19T13:58:02;21.00;99.90
7461;DHT22;6757;52.258;12.840;2022-08-19T14:00:31;21.00;99.90
7461;DHT22;6757;52.258;12.840;2022-08-19T14:03:00;21.00;99.90
7461;DHT22;6757;52.258;12.840;2022-08-19T14:05:28;21.00;99.90
7461;DHT22;6757;52.258;12.840;2022-08-19T14:07:56;21.00;99.90
7461;DHT22;6757;52.258;12.840;2022-08-19T14:10:23;22.00;99.90
7461;DHT22;6757;52.258;12.840;2022-08-19T14:12:54;21.00;99.90
7461;DHT22;6757;52.258;12.840;2022-08-19T14:15:23;21.00;99.90
7461;DHT22;6757;52.258;12.840;2022-08-19T14:17:51;21.00;99.90
7461;DHT22;6757;52.258;12.840;2022-08-19T14:20:19;21.00;99.90
7461;DHT22;6757;52.258;12.840;2022-08-19T14:22:47;20.90;99.90
7461;DHT22;6757;52.258;12.840;2022-08-19T14:25:19;21.80;99.90
7461;DHT22;6757;52.258;12.840;2022-08-19T14:27:49;20.90;99.90
7461;DHT22;6757;52.258;12.840;2022-08-19T14:30:20;20.90;99.90
7461;DHT22;6757;52.258;12.840;2022-08-19T14:32:48;20.90;99.90
7461;DHT22;6757;52.258;12.840;2022-08-19T14:35:16;20.80;99.90
7461;DHT22;6757;52.258;12.840;2022-08-19T14:37:44;20.80;99.90
7461;DHT22;6757;52.258;12.840;2022-08-19T14:40:12;20.80;99.90
7461;DHT22;6757;52.258;12.840;2022-08-19T14:42:41;20.80;99.90
7461;DHT22;6757;52.258;12.840;2022-08-19T14:45:09;20.80;99.90
7461;DHT22;6757;52.258;12.840;2022-08-19T14:47:38;20.80;99.90
7461;DHT22;6757;52.258;12.840;2022-08-19T14:50:07;20.80;99.90
7461;DHT22;6757;52.258;12.840;2022-08-19T14:52:34;20.80;99.90
7461;DHT22;6757;52.258;12.840;2022-08-19T14:55:02;20.70;99.90
7461;DHT22;6757;52.258;12.840;2022-08-19T14:57:29;20.70;99.90
7461;DHT22;6757;52.258;12.840;2022-08-19T14:59:56;20.70;99.90
7461;DHT22;6757;52.258;12.840;2022-08-19T15:02:23;20.70;99.90
7461;DHT22;6757;52.258;12.840;2022-08-19T15:04:52;20.70;99.90
7461;DHT22;6757;52.258;12.840;2022-08-19T15:07:21;20.70;99.90
7461;DHT22;6757;52.258;12.840;2022-08-19T15:09:49;20.70;99.90
7461;DHT22;6757;52.258;12.840;2022-08-19T15:12:16;20.70;99.90
7461;DHT22;6757;52.258;12.840;2022-08-19T15:14:43;20.70;99.90
7461;DHT22;6757;52.258;12.840;2022-08-19T15:17:15;20.70;99.90
7461;DHT22;6757;52.258;12.840;2022-08-19T15:19:43;20.70;99.90
7461;DHT22;6757;52.258;12.840;2022-08-19T15:22:11;20.70;99.90
7461;DHT22;6757;52.258;12.840;2022-08-19T15:24:39;20.70;99.90
7461;DHT22;6757;52.258;12.840;2022-08-19T15:27:08;20.60;99.90
7461;DHT22;6757;52.258;12.840;2022-08-19T15:29:35;20.70;99.90
7461;DHT22;6757;52.258;12.840;2022-08-19T15:32:02;20.60;99.90
7461;DHT22;6757;52.258;12.840;2022-08-19T15:34:31;20.60;99.90
7461;DHT22;6757;52.258;12.840;2022-08-19T15:36:58;21.00;99.90
7461;DHT22;6757;52.258;12.840;2022-08-19T15:39:26;20.60;99.90
7461;DHT22;6757;52.258;12.840;2022-08-19T15:41:53;20.60;99.90
7461;DHT22;6757;52.258;12.840;2022-08-19T15:44:21;21.20;99.90
7461;DHT22;6757;52.258;12.840;2022-08-19T15:46:48;20.60;99.90
7461;DHT22;6757;52.258;12.840;2022-08-19T15:49:16;20.60;99.90
7461;DHT22;6757;52.258;12.840;2022-08-19T15:51:45;20.60;99.90
7461;DHT22;6757;52.258;12.840;2022-08-19T15:54:17;20.60;99.90
7461;DHT22;6757;52.258;12.840;2022-08-19T15:56:48;20.60;99.90